createdAt,value
2023-02-28T00:01:10.000Z,40.80
2023-02-28T00:03:37.686Z,37.53
2023-02-28T00:06:06.127Z,36.83
2023-02-28T00:08:35.453Z,38.43
2023-02-28T00:11:04.641Z,39.87
2023-02-28T00:13:32.811Z,42.97
2023-02-28T00:16:02.219Z,40.67
2023-02-28T00:18:31.514Z,46.03
2023-02-28T00:20:59.873Z,40.83
2023-02-28T00:23:28.336Z,42.40
2023-02-28T00:25:57.870Z,36.73
2023-02-28T00:28:25.568Z,39.53
2023-02-28T00:30:53.536Z,37.83
2023-02-28T00:33:21.504Z,42.20
2023-02-28T00:35:49.690Z,36.07
2023-02-28T00:38:17.554Z,36.83
2023-02-28T00:40:45.230Z,38.70
2023-02-28T00:43:14.166Z,41.20
2023-02-28T00:45:41.816Z,38.30
2023-02-28T00:48:09.392Z,40.50
2023-02-28T00:50:37.005Z,38.67
2023-02-28T00:53:04.734Z,43.93
2023-02-28T00:55:32.367Z,40.23
2023-02-28T00:57:59.917Z,43.73
2023-02-28T01:00:29.218Z,41.80
2023-02-28T01:02:56.853Z,41.53
2023-02-28T01:05:24.789Z,45.17
2023-02-28T01:07:52.436Z,40.77
2023-02-28T01:10:21.771Z,48.47
2023-02-28T01:12:50.625Z,47.13
2023-02-28T01:15:18.443Z,48.57
2023-02-28T01:17:48.071Z,50.13
2023-02-28T01:20:16.168Z,48.77
2023-02-28T01:22:43.787Z,52.43
2023-02-28T01:25:11.442Z,50.17
2023-02-28T01:27:40.381Z,46.13
2023-02-28T01:30:09.793Z,49.43
2023-02-28T01:32:37.942Z,52.83
2023-02-28T01:35:07.728Z,55.23
2023-02-28T01:37:35.342Z,52.37
2023-02-28T01:40:03.001Z,55.70
2023-02-28T01:42:30.763Z,53.67
2023-02-28T01:45:20.355Z,57.30
2023-02-28T01:47:51.963Z,61.33
2023-02-28T01:50:25.008Z,59.30
2023-02-28T01:52:55.050Z,58.77
2023-02-28T01:55:29.487Z,56.10
2023-02-28T01:58:02.955Z,57.53
2023-02-28T02:00:32.404Z,66.80
2023-02-28T02:03:05.530Z,62.07
2023-02-28T02:05:35.440Z,62.77
2023-02-28T02:08:06.190Z,68.63
2023-02-28T02:10:37.457Z,69.93
2023-02-28T02:13:36.845Z,70.77
2023-02-28T02:16:17.966Z,69.53
2023-02-28T02:18:50.050Z,72.00
2023-02-28T02:21:50.649Z,74.20
2023-02-28T02:25:01.136Z,72.57
2023-02-28T02:27:41.646Z,72.53
2023-02-28T02:30:29.074Z,69.00
2023-02-28T02:33:21.985Z,77.77
2023-02-28T02:35:56.805Z,67.97
2023-02-28T02:38:35.816Z,74.50
2023-02-28T02:41:10.585Z,81.70
2023-02-28T02:43:42.820Z,78.17
2023-02-28T02:46:16.046Z,82.80
2023-02-28T02:48:48.073Z,73.23
2023-02-28T02:51:20.756Z,75.43
2023-02-28T02:53:52.766Z,68.20
2023-02-28T02:56:23.460Z,67.90
2023-02-28T02:58:54.740Z,73.17
2023-02-28T03:01:29.721Z,68.40
2023-02-28T03:04:00.194Z,65.60
2023-02-28T03:06:29.341Z,68.80
2023-02-28T03:08:57.036Z,72.20
2023-02-28T03:11:25.207Z,72.87
2023-02-28T03:14:28.054Z,74.37
2023-02-28T03:17:08.349Z,63.37
2023-02-28T03:19:49.350Z,64.23
2023-02-28T03:22:32.229Z,68.90
2023-02-28T03:25:10.823Z,69.33
2023-02-28T03:28:12.045Z,64.87
2023-02-28T03:30:47.758Z,67.20
2023-02-28T03:33:17.720Z,65.23
2023-02-28T03:35:50.407Z,67.10
2023-02-28T03:38:24.451Z,67.17
2023-02-28T03:40:57.007Z,64.23
2023-02-28T03:43:28.648Z,63.17
2023-02-28T03:45:57.803Z,60.53
2023-02-28T03:48:32.889Z,58.33
2023-02-28T03:51:03.252Z,64.10
2023-02-28T03:53:35.561Z,61.87
2023-02-28T03:56:07.797Z,57.23
2023-02-28T03:58:44.165Z,57.33
2023-02-28T04:01:15.963Z,63.57
2023-02-28T04:03:43.737Z,61.37
2023-02-28T04:06:18.330Z,63.43
2023-02-28T04:08:48.017Z,61.80
2023-02-28T04:11:23.347Z,60.57
2023-02-28T04:13:51.407Z,55.70
2023-02-28T04:16:33.892Z,63.10
2023-02-28T04:19:04.286Z,56.10
2023-02-28T04:21:33.679Z,54.93
2023-02-28T04:24:03.157Z,61.73
2023-02-28T04:26:31.868Z,68.43
2023-02-28T04:29:00.119Z,57.10
2023-02-28T04:31:28.250Z,60.17
2023-02-28T04:33:56.311Z,63.60
2023-02-28T04:36:24.198Z,63.43
2023-02-28T04:38:51.964Z,55.93
2023-02-28T04:41:21.093Z,59.40
2023-02-28T04:43:49.200Z,57.13
2023-02-28T04:46:17.064Z,58.80
2023-02-28T04:48:45.259Z,53.27
2023-02-28T04:51:14.420Z,52.00
2023-02-28T04:53:43.422Z,55.03
2023-02-28T04:56:14.248Z,52.40
2023-02-28T04:58:43.626Z,49.03
2023-02-28T05:01:20.191Z,50.60
2023-02-28T05:03:47.822Z,51.17
2023-02-28T05:06:16.875Z,49.57
2023-02-28T05:08:44.891Z,51.33
2023-02-28T05:11:17.815Z,53.37
2023-02-28T05:13:47.327Z,55.67
2023-02-28T05:16:15.063Z,49.17
2023-02-28T05:18:43.221Z,49.80
2023-02-28T05:21:26.583Z,56.97
2023-02-28T05:23:55.111Z,53.13
2023-02-28T05:26:22.985Z,56.67
2023-02-28T05:28:51.995Z,56.13
2023-02-28T05:31:19.956Z,58.27
2023-02-28T05:33:48.020Z,58.10
2023-02-28T05:36:16.023Z,56.67
2023-02-28T05:38:43.774Z,59.03
2023-02-28T05:41:13.132Z,62.63
2023-02-28T05:43:40.817Z,57.17
2023-02-28T05:46:11.847Z,62.27
2023-02-28T05:48:41.203Z,59.00
2023-02-28T05:51:10.046Z,53.13
2023-02-28T05:53:38.287Z,60.80
2023-02-28T05:56:06.400Z,58.63
2023-02-28T05:58:35.580Z,52.33
2023-02-28T06:01:23.658Z,58.73
2023-02-28T06:03:51.522Z,53.07
2023-02-28T06:06:19.494Z,61.97
2023-02-28T06:08:47.226Z,58.40
2023-02-28T06:11:15.131Z,58.10
2023-02-28T06:13:42.979Z,59.33
2023-02-28T06:16:12.426Z,58.30
2023-02-28T06:18:41.440Z,56.13
2023-02-28T06:21:09.821Z,54.70
2023-02-28T06:23:37.626Z,58.60
2023-02-28T06:26:05.611Z,60.57
2023-02-28T06:28:33.852Z,58.70
2023-02-28T06:31:01.594Z,58.53
2023-02-28T06:33:29.229Z,61.40
2023-02-28T06:35:58.202Z,63.37
2023-02-28T06:38:25.843Z,57.47
2023-02-28T06:40:56.865Z,61.17
2023-02-28T06:43:24.656Z,55.50
2023-02-28T06:45:52.466Z,65.53
2023-02-28T06:48:20.082Z,56.93
2023-02-28T06:50:47.851Z,60.73
2023-02-28T06:53:16.851Z,61.87
2023-02-28T06:55:44.539Z,64.37
2023-02-28T06:58:19.893Z,63.50
2023-02-28T07:00:52.196Z,62.07
2023-02-28T07:03:20.530Z,61.70
2023-02-28T07:05:48.191Z,55.80
2023-02-28T07:08:17.205Z,58.87
2023-02-28T07:10:44.954Z,60.33
2023-02-28T07:13:12.643Z,56.63
2023-02-28T07:15:43.679Z,67.97
2023-02-28T07:18:11.859Z,62.53
2023-02-28T07:20:39.605Z,63.50
2023-02-28T07:23:07.270Z,70.20
2023-02-28T07:25:36.280Z,67.10
2023-02-28T07:28:03.991Z,66.53
2023-02-28T07:30:31.637Z,69.50
2023-02-28T07:32:59.383Z,68.57
2023-02-28T07:35:27.043Z,75.77
2023-02-28T07:37:54.695Z,72.97
2023-02-28T07:40:22.359Z,81.40
2023-02-28T07:42:51.353Z,78.07
2023-02-28T07:45:19.237Z,76.63
2023-02-28T07:47:47.600Z,87.90
2023-02-28T07:50:17.686Z,85.00
2023-02-28T07:52:45.358Z,76.10
2023-02-28T07:55:14.493Z,85.17
2023-02-28T07:57:43.155Z,85.23
2023-02-28T08:00:14.636Z,82.13
2023-02-28T08:02:42.498Z,76.10
2023-02-28T08:05:10.808Z,79.30
2023-02-28T08:07:38.440Z,75.77
2023-02-28T08:10:07.516Z,77.97
2023-02-28T08:12:35.265Z,73.40
2023-02-28T08:15:02.884Z,70.50
2023-02-28T08:17:33.737Z,77.10
2023-02-28T08:20:02.956Z,71.63
2023-02-28T08:22:30.715Z,72.73
2023-02-28T08:24:58.334Z,66.63
2023-02-28T08:27:26.020Z,67.23
2023-02-28T08:29:53.731Z,66.20
2023-02-28T08:32:29.838Z,67.07
2023-02-28T08:34:59.285Z,65.77
2023-02-28T08:37:27.125Z,68.07
2023-02-28T08:39:56.409Z,75.67
2023-02-28T08:42:24.640Z,66.97
2023-02-28T08:44:52.371Z,66.80
2023-02-28T08:47:20.353Z,62.03
2023-02-28T08:49:48.143Z,66.83
2023-02-28T08:52:17.116Z,66.90
2023-02-28T08:54:44.805Z,63.80
2023-02-28T08:57:12.451Z,69.10
2023-02-28T08:59:40.740Z,64.43
2023-02-28T09:02:10.806Z,75.67
2023-02-28T09:04:38.441Z,75.77
2023-02-28T09:07:06.096Z,79.13
2023-02-28T09:09:35.129Z,69.03
2023-02-28T09:12:03.057Z,71.83
2023-02-28T09:14:30.925Z,70.10
2023-02-28T09:16:58.558Z,62.90
2023-02-28T09:19:26.256Z,67.17
2023-02-28T09:21:53.903Z,62.50
2023-02-28T09:24:21.640Z,62.13
2023-02-28T09:27:03.535Z,66.63
2023-02-28T09:29:32.299Z,55.83
2023-02-28T09:32:00.670Z,54.07
2023-02-28T09:34:28.988Z,61.47
2023-02-28T09:36:56.965Z,51.17
2023-02-28T09:39:27.590Z,53.93
2023-02-28T09:41:58.700Z,54.40
2023-02-28T09:44:33.098Z,54.37
2023-02-28T09:47:07.292Z,57.80
2023-02-28T09:49:42.340Z,51.47
2023-02-28T09:52:13.975Z,48.13
2023-02-28T09:54:42.301Z,50.70
2023-02-28T09:57:20.625Z,54.63
2023-02-28T10:00:02.533Z,51.80
2023-02-28T10:03:05.827Z,47.20
2023-02-28T10:05:38.605Z,44.30
2023-02-28T10:08:13.763Z,48.63
2023-02-28T10:10:44.214Z,40.77
2023-02-28T10:13:23.825Z,53.77
2023-02-28T10:15:57.089Z,45.30
2023-02-28T10:18:29.268Z,45.10
2023-02-28T10:20:57.976Z,50.53
2023-02-28T10:23:29.416Z,53.70
2023-02-28T10:26:01.582Z,49.27
2023-02-28T10:28:31.808Z,49.20
2023-02-28T10:31:00.648Z,47.27
2023-02-28T10:33:32.296Z,42.40
2023-02-28T10:36:00.916Z,40.57
2023-02-28T10:38:31.076Z,39.67
2023-02-28T10:41:09.920Z,41.60
2023-02-28T10:43:40.708Z,37.70
2023-02-28T10:46:16.380Z,39.53
2023-02-28T10:48:48.883Z,39.33
2023-02-28T10:51:20.156Z,43.73
2023-02-28T10:54:01.390Z,44.30
2023-02-28T10:56:32.203Z,38.90
2023-02-28T10:59:04.101Z,39.33
2023-02-28T11:01:41.204Z,35.27
2023-02-28T11:04:39.320Z,38.70
2023-02-28T11:07:08.887Z,36.83
2023-02-28T11:09:39.798Z,36.70
2023-02-28T11:12:10.419Z,34.20
2023-02-28T11:14:48.595Z,37.23
2023-02-28T11:17:22.580Z,37.43
2023-02-28T11:19:53.340Z,37.97
2023-02-28T11:22:23.717Z,40.17
2023-02-28T11:24:55.438Z,34.00
2023-02-28T11:27:41.704Z,40.27
2023-02-28T11:30:33.105Z,33.10
2023-02-28T11:33:00.891Z,36.93
2023-02-28T11:35:32.460Z,35.10
2023-02-28T11:38:00.478Z,38.23
2023-02-28T11:40:41.175Z,38.07
2023-02-28T11:43:21.469Z,40.50
2023-02-28T11:46:06.502Z,36.13
2023-02-28T11:48:44.889Z,38.80
2023-02-28T11:51:21.245Z,35.27
2023-02-28T11:54:23.096Z,35.70
2023-02-28T11:56:56.907Z,29.33
2023-02-28T11:59:45.364Z,35.13
2023-02-28T12:02:31.512Z,34.27
2023-02-28T12:05:13.101Z,34.73
2023-02-28T12:07:51.623Z,32.70
2023-02-28T12:10:24.789Z,33.17
2023-02-28T12:13:05.751Z,32.20
2023-02-28T12:15:57.587Z,36.40
2023-02-28T12:18:39.627Z,32.80
2023-02-28T12:21:16.929Z,33.20
2023-02-28T12:23:59.613Z,36.30
2023-02-28T12:26:38.699Z,31.63
2023-02-28T12:29:14.597Z,32.20
2023-02-28T12:31:48.152Z,31.07
2023-02-28T12:34:22.546Z,32.47
2023-02-28T12:36:52.802Z,34.47
2023-02-28T12:39:26.338Z,31.87
2023-02-28T12:41:57.878Z,35.53
2023-02-28T12:44:32.526Z,34.97
2023-02-28T12:47:05.718Z,30.47
2023-02-28T12:49:40.297Z,36.47
2023-02-28T12:52:11.998Z,35.13
2023-02-28T12:54:50.387Z,32.83
2023-02-28T12:57:25.046Z,33.53
2023-02-28T12:59:56.127Z,32.13
2023-02-28T13:02:57.845Z,33.97
2023-02-28T13:06:16.981Z,30.10
2023-02-28T13:09:04.105Z,30.37
2023-02-28T13:11:34.337Z,30.30
2023-02-28T13:14:04.889Z,33.60
2023-02-28T13:16:53.070Z,30.63
2023-02-28T13:19:24.055Z,30.77
2023-02-28T13:21:52.798Z,30.77
2023-02-28T13:24:42.690Z,32.73
2023-02-28T13:27:35.868Z,30.70
2023-02-28T13:30:42.216Z,27.70
2023-02-28T13:33:30.982Z,28.90
2023-02-28T13:36:24.843Z,31.90
2023-02-28T13:38:54.350Z,27.90
2023-02-28T13:41:47.731Z,30.50
2023-02-28T13:44:18.618Z,29.83
2023-02-28T13:47:25.416Z,30.60
2023-02-28T13:49:53.913Z,27.07
2023-02-28T13:52:25.714Z,29.97
2023-02-28T13:55:05.859Z,33.40
2023-02-28T13:57:53.009Z,33.17
2023-02-28T14:00:30.740Z,32.10
2023-02-28T14:03:24.199Z,32.00
2023-02-28T14:06:11.410Z,28.47
2023-02-28T14:08:39.371Z,27.70
2023-02-28T14:11:08.963Z,29.03
2023-02-28T14:13:46.140Z,30.77
2023-02-28T14:16:16.603Z,29.80
2023-02-28T14:18:52.138Z,33.33
2023-02-28T14:21:26.446Z,29.63
2023-02-28T14:24:26.886Z,30.27
2023-02-28T14:27:05.715Z,29.47
2023-02-28T14:30:05.529Z,29.00
2023-02-28T14:32:36.896Z,30.73
2023-02-28T14:35:18.721Z,32.97
2023-02-28T14:37:46.883Z,29.77
2023-02-28T14:40:18.119Z,34.13
2023-02-28T14:42:50.377Z,29.70
2023-02-28T14:45:23.383Z,32.77
2023-02-28T14:47:53.231Z,28.87
2023-02-28T14:50:22.500Z,29.63
2023-02-28T14:52:53.443Z,30.70
2023-02-28T14:55:26.205Z,30.60
2023-02-28T14:57:56.593Z,29.23
2023-02-28T15:00:28.302Z,27.63
2023-02-28T15:02:57.188Z,26.33
2023-02-28T15:05:28.635Z,26.33
2023-02-28T15:08:12.591Z,27.50
2023-02-28T15:10:42.138Z,26.47
2023-02-28T15:13:14.174Z,31.10
2023-02-28T15:16:05.241Z,28.53
2023-02-28T15:18:44.404Z,27.27
2023-02-28T15:21:15.999Z,24.97
2023-02-28T15:23:48.494Z,24.23
2023-02-28T15:26:21.280Z,27.30
2023-02-28T15:28:51.757Z,30.17
2023-02-28T15:31:31.944Z,26.83
2023-02-28T15:34:06.432Z,28.13
2023-02-28T15:36:38.116Z,27.70
2023-02-28T15:39:21.223Z,27.83
2023-02-28T15:41:49.232Z,29.40
2023-02-28T15:44:19.123Z,27.87
2023-02-28T15:46:58.870Z,27.97
2023-02-28T15:49:27.295Z,24.00
2023-02-28T15:51:58.062Z,28.33
2023-02-28T15:54:30.543Z,25.93
2023-02-28T15:57:02.598Z,29.10
2023-02-28T15:59:32.974Z,28.03
2023-02-28T16:02:15.925Z,28.93
2023-02-28T16:05:01.880Z,27.33
2023-02-28T16:07:30.583Z,28.07
2023-02-28T16:09:58.201Z,25.57
2023-02-28T16:12:28.736Z,30.43
2023-02-28T16:14:58.901Z,28.83
2023-02-28T16:17:30.353Z,30.40
2023-02-28T16:19:59.026Z,29.23
2023-02-28T16:22:27.294Z,28.23
2023-02-28T16:24:55.002Z,28.27
2023-02-28T16:27:27.015Z,28.43
2023-02-28T16:29:55.623Z,29.37
2023-02-28T16:32:23.538Z,28.90
2023-02-28T16:34:52.666Z,27.23
2023-02-28T16:37:20.712Z,29.47
2023-02-28T16:39:50.334Z,32.07
2023-02-28T16:42:25.778Z,29.27
2023-02-28T16:44:54.498Z,31.47
2023-02-28T16:47:22.531Z,26.73
2023-02-28T16:49:50.230Z,31.57
2023-02-28T16:52:19.171Z,31.80
2023-02-28T16:54:46.846Z,25.80
2023-02-28T16:57:20.297Z,29.57
2023-02-28T16:59:48.012Z,28.57
2023-02-28T17:02:20.244Z,28.53
2023-02-28T17:04:48.306Z,25.73
2023-02-28T17:07:18.023Z,27.37
2023-02-28T17:09:47.565Z,29.63
2023-02-28T17:12:15.495Z,28.80
2023-02-28T17:14:43.202Z,31.10
2023-02-28T17:17:17.551Z,29.87
2023-02-28T17:19:45.281Z,30.83
2023-02-28T17:22:13.422Z,26.43
2023-02-28T17:24:41.242Z,31.30
2023-02-28T17:27:13.874Z,35.70
2023-02-28T17:29:42.577Z,34.00
2023-02-28T17:32:17.737Z,29.20
2023-02-28T17:34:46.814Z,31.60
2023-02-28T17:37:14.828Z,32.13
2023-02-28T17:39:42.510Z,34.10
2023-02-28T17:42:10.201Z,31.57
2023-02-28T17:44:39.563Z,29.73
2023-02-28T17:47:07.639Z,32.93
2023-02-28T17:49:35.316Z,32.47
2023-02-28T17:52:03.120Z,31.50
2023-02-28T17:54:30.830Z,33.30
2023-02-28T17:56:58.558Z,32.70
2023-02-28T17:59:26.479Z,32.07
2023-02-28T18:01:55.964Z,34.13
2023-02-28T18:04:23.649Z,32.60
2023-02-28T18:06:52.555Z,35.13
2023-02-28T18:09:22.619Z,31.90
2023-02-28T18:11:51.014Z,33.10
2023-02-28T18:14:20.322Z,33.20
2023-02-28T18:16:48.187Z,31.33
2023-02-28T18:19:17.688Z,29.17
2023-02-28T18:21:46.282Z,34.07
2023-02-28T18:24:15.125Z,32.33
2023-02-28T18:26:43.903Z,30.77
2023-02-28T18:29:18.527Z,31.83
2023-02-28T18:31:46.388Z,33.27
2023-02-28T18:34:15.064Z,33.10
2023-02-28T18:36:46.990Z,31.03
2023-02-28T18:39:15.372Z,38.70
2023-02-28T18:41:43.422Z,40.23
2023-02-28T18:44:19.829Z,36.93
2023-02-28T18:46:48.605Z,40.17
2023-02-28T18:49:16.303Z,39.00
2023-02-28T18:51:46.479Z,36.73
2023-02-28T18:54:16.644Z,38.97
2023-02-28T18:56:44.585Z,40.43
2023-02-28T18:59:12.808Z,44.07
2023-02-28T19:01:40.894Z,44.90
2023-02-28T19:06:38.458Z,44.47
2023-02-28T19:09:07.696Z,43.90
2023-02-28T19:11:36.799Z,52.50
2023-02-28T19:14:04.856Z,48.27
2023-02-28T19:16:32.915Z,53.20
2023-02-28T19:19:00.734Z,54.90
2023-02-28T19:21:28.404Z,53.53
2023-02-28T19:23:56.062Z,47.50
2023-02-28T19:26:26.390Z,49.20
2023-02-28T19:28:54.159Z,47.57
2023-02-28T19:31:24.147Z,52.70
2023-02-28T19:33:53.111Z,49.67
2023-02-28T19:36:21.959Z,49.50
2023-02-28T19:38:50.429Z,53.07
2023-02-28T19:41:19.563Z,56.47
2023-02-28T19:43:48.530Z,54.57
2023-02-28T19:46:16.582Z,59.30
2023-02-28T19:48:44.807Z,56.20
2023-02-28T19:51:14.850Z,55.73
2023-02-28T19:53:43.592Z,53.40
2023-02-28T19:56:12.080Z,54.10
2023-02-28T19:58:40.210Z,56.33
2023-02-28T20:01:11.032Z,58.33
2023-02-28T20:03:38.844Z,56.30
2023-02-28T20:06:09.707Z,59.20
2023-02-28T20:08:38.365Z,56.03
2023-02-28T20:11:07.954Z,62.03
2023-02-28T20:13:36.104Z,55.57
2023-02-28T20:16:06.781Z,59.40
2023-02-28T20:18:36.644Z,55.20
2023-02-28T20:21:04.895Z,55.23
2023-02-28T20:23:32.601Z,58.87
2023-02-28T20:26:00.480Z,50.93
2023-02-28T20:28:28.643Z,59.20
2023-02-28T20:30:56.879Z,57.50
2023-02-28T20:33:24.684Z,57.97
2023-02-28T20:36:00.810Z,56.87
2023-02-28T20:38:29.056Z,49.73
2023-02-28T20:40:56.917Z,50.73
2023-02-28T20:43:24.664Z,47.93
2023-02-28T20:45:53.217Z,53.57
2023-02-28T20:48:21.974Z,55.30
2023-02-28T20:50:50.332Z,58.60
2023-02-28T20:53:19.693Z,53.37
2023-02-28T20:55:55.374Z,55.60
2023-02-28T20:58:23.237Z,54.53
2023-02-28T21:00:50.840Z,53.93
2023-02-28T21:03:18.470Z,55.77
2023-02-28T21:05:46.172Z,54.43
2023-02-28T21:08:13.814Z,56.63
2023-02-28T21:10:42.797Z,52.73
2023-02-28T21:13:10.483Z,50.60
2023-02-28T21:15:39.150Z,53.47
2023-02-28T21:18:06.949Z,56.07
2023-02-28T21:20:34.645Z,54.40
2023-02-28T21:23:02.298Z,57.93
2023-02-28T21:25:30.059Z,52.73
2023-02-28T21:27:59.058Z,49.53
2023-02-28T21:30:26.763Z,49.23
2023-02-28T21:32:54.413Z,50.57
2023-02-28T21:35:22.086Z,47.53
2023-02-28T21:37:49.862Z,51.83
2023-02-28T21:40:17.893Z,50.07
2023-02-28T21:42:45.539Z,51.17
2023-02-28T21:45:14.475Z,54.50
2023-02-28T21:47:42.141Z,50.20
2023-02-28T21:50:11.582Z,51.20
2023-02-28T21:52:39.208Z,48.53
2023-02-28T21:55:07.668Z,52.50
2023-02-28T21:57:35.923Z,52.20
2023-02-28T22:00:05.320Z,49.80
2023-02-28T22:02:41.255Z,42.67
2023-02-28T22:05:09.495Z,49.57
2023-02-28T22:07:37.113Z,54.60
2023-02-28T22:10:05.304Z,55.57
2023-02-28T22:12:32.990Z,52.33
2023-02-28T22:15:00.676Z,50.70
2023-02-28T22:17:28.385Z,46.57
2023-02-28T22:19:57.360Z,48.30
2023-02-28T22:22:25.870Z,55.13
2023-02-28T22:24:53.661Z,52.70
2023-02-28T22:27:21.304Z,54.93
2023-02-28T22:29:48.968Z,52.33
2023-02-28T22:32:16.743Z,52.17
2023-02-28T22:34:44.413Z,53.37
2023-02-28T22:37:13.409Z,50.60
2023-02-28T22:39:41.321Z,49.90
2023-02-28T22:42:09.650Z,51.90
2023-02-28T22:44:37.930Z,50.47
2023-02-28T22:47:06.037Z,47.80
2023-02-28T22:49:33.701Z,51.00
2023-02-28T22:52:01.352Z,53.73
2023-02-28T22:54:31.168Z,47.07
2023-02-28T22:56:58.759Z,48.87
2023-02-28T22:59:26.458Z,53.30
2023-02-28T23:01:54.122Z,53.33
2023-02-28T23:04:25.570Z,55.23
2023-02-28T23:06:53.436Z,57.00
2023-02-28T23:09:21.527Z,55.77
2023-02-28T23:11:52.149Z,55.70
2023-02-28T23:14:21.414Z,56.97
2023-02-28T23:16:50.643Z,56.07
2023-02-28T23:19:21.024Z,60.37
2023-02-28T23:21:49.913Z,59.97
2023-02-28T23:24:19.951Z,54.40
2023-02-28T23:26:51.348Z,61.37
2023-02-28T23:29:21.199Z,62.80
2023-02-28T23:31:50.248Z,56.90
2023-02-28T23:34:26.074Z,56.90
2023-02-28T23:36:54.541Z,56.63
2023-02-28T23:39:23.954Z,56.33
2023-02-28T23:41:52.970Z,59.07
2023-02-28T23:44:20.702Z,62.00
2023-02-28T23:46:49.861Z,61.37
2023-02-28T23:49:19.803Z,59.17
2023-02-28T23:51:47.801Z,66.13
2023-02-28T23:54:15.599Z,69.60
2023-02-28T23:56:43.268Z,65.67
2023-02-28T23:59:12.442Z,65.50
